Time;durP1;ratioP1;P1;durP2;ratioP2;P2;SDS_P1;SDS_P2;PMS_P1;PMS_P2;Temp;Humidity;BMP_temperature;BMP_pressure;BME280_temperature;BME280_humidity;BME280_pressure;Samples;Min_cycle;Max_cycle;Signal;HPM_P1;HPM_P2
2023/03/08 00:01:53;;;;;;;7.32;1.90;;;22.80;40.50;;;;;;5072317;28;20071;-68
2023/03/08 00:04:20;;;;;;;37.15;20.33;;;22.70;41.00;;;;;;5070343;28;20955;-66
2023/03/08 00:06:46;;;;;;;60.90;28.55;;;22.70;41.40;;;;;;5070573;28;20067;-67
2023/03/08 00:09:13;;;;;;;22.15;7.63;;;22.60;41.90;;;;;;5070355;28;20127;-68
2023/03/08 00:11:39;;;;;;;8.30;2.60;;;22.40;42.10;;;;;;5071006;28;20639;-69
2023/03/08 00:14:05;;;;;;;4.47;1.50;;;22.50;41.80;;;;;;5071359;28;20150;-70
2023/03/08 00:16:32;;;;;;;9.60;2.13;;;22.50;41.90;;;;;;5072109;28;20483;-69
2023/03/08 00:18:58;;;;;;;11.40;2.90;;;22.50;42.20;;;;;;5070873;28;20137;-66
2023/03/08 00:21:25;;;;;;;11.23;2.40;;;22.50;41.70;;;;;;5068101;28;20104;-67
2023/03/08 00:23:55;;;;;;;7.72;2.20;;;22.50;42.00;;;;;;5051518;28;21500;-64
2023/03/08 00:26:22;;;;;;;3.67;1.60;;;22.50;41.70;;;;;;5069871;28;20103;-68
2023/03/08 00:28:48;;;;;;;8.73;2.72;;;22.40;42.00;;;;;;5068779;28;20088;-68
2023/03/08 00:31:15;;;;;;;11.80;2.85;;;22.30;41.90;;;;;;5069476;28;20099;-67
2023/03/08 00:33:41;;;;;;;11.85;2.30;;;22.20;41.50;;;;;;5069031;28;20500;-67
2023/03/08 00:36:14;;;;;;;8.55;2.33;;;22.20;42.40;;;;;;5069239;28;20080;-67
2023/03/08 00:38:41;;;;;;;8.68;2.70;;;22.20;42.10;;;;;;5070652;28;20170;-68
2023/03/08 00:41:08;;;;;;;8.52;2.08;;;22.10;42.50;;;;;;5069408;28;20657;-66
2023/03/08 00:43:34;;;;;;;9.32;2.00;;;22.00;42.60;;;;;;5071098;28;20124;-67
2023/03/08 00:46:01;;;;;;;7.65;1.98;;;21.90;42.80;;;;;;5071872;28;20187;-67
2023/03/08 00:48:27;;;;;;;7.32;1.83;;;21.90;43.10;;;;;;5070602;28;20441;-68
2023/03/08 00:50:54;;;;;;;11.75;2.33;;;21.70;43.30;;;;;;5071708;28;20068;-68
2023/03/08 00:53:20;;;;;;;12.27;2.22;;;21.70;43.20;;;;;;5072176;28;20298;-67
2023/03/08 00:55:51;;;;;;;6.03;1.80;;;21.60;43.50;;;;;;5068873;28;20095;-68
2023/03/08 00:58:18;;;;;;;9.63;2.20;;;21.60;43.80;;;;;;5070578;28;20067;-68
2023/03/08 01:00:45;;;;;;;6.93;1.83;;;21.50;43.50;;;;;;5069872;28;20084;-66
2023/03/08 01:03:12;;;;;;;9.05;2.08;;;21.50;43.60;;;;;;5069369;28;20076;-68
2023/03/08 01:05:43;;;;;;;14.63;2.70;;;21.40;43.70;;;;;;5067933;28;20112;-70
2023/03/08 01:08:10;;;;;;;8.35;2.20;;;21.20;44.10;;;;;;5071149;28;20091;-67
2023/03/08 01:10:36;;;;;;;11.30;2.38;;;21.10;43.70;;;;;;5069157;28;20098;-66
2023/03/08 01:13:04;;;;;;;15.90;3.72;;;20.90;44.40;;;;;;5068186;28;20144;-67
2023/03/08 01:15:37;;;;;;;14.70;4.07;;;20.80;44.50;;;;;;5073329;28;20068;-68
2023/03/08 01:18:05;;;;;;;11.80;2.58;;;20.70;44.70;;;;;;5072337;28;20096;-67
2023/03/08 01:20:32;;;;;;;11.68;3.03;;;20.50;44.40;;;;;;5072857;28;20072;-69
2023/03/08 01:22:59;;;;;;;8.88;2.33;;;20.50;44.70;;;;;;5073316;28;20080;-69
2023/03/08 01:25:25;;;;;;;7.05;2.40;;;20.30;45.20;;;;;;5074378;28;20072;-68
2023/03/08 01:27:52;;;;;;;8.32;2.33;;;20.20;45.90;;;;;;5073068;28;20092;-67
2023/03/08 01:30:18;;;;;;;9.55;2.67;;;20.10;46.30;;;;;;5071096;28;20095;-69
2023/03/08 01:32:44;;;;;;;10.90;2.40;;;20.10;46.70;;;;;;5071219;28;20113;-68
2023/03/08 01:35:11;;;;;;;6.32;2.17;;;19.90;46.60;;;;;;5071594;28;20068;-67
2023/03/08 01:37:37;;;;;;;10.75;2.70;;;19.90;46.90;;;;;;5071239;28;20079;-68
2023/03/08 01:40:05;;;;;;;12.13;2.97;;;19.80;47.20;;;;;;5072880;28;20548;-68
2023/03/08 01:42:32;;;;;;;13.18;2.60;;;19.80;47.30;;;;;;5073071;28;20072;-67
2023/03/08 01:45:05;;;;;;;11.45;2.47;;;19.70;47.50;;;;;;5053945;28;20090;-69
2023/03/08 01:47:37;;;;;;;7.30;2.45;;;19.60;48.00;;;;;;5074741;28;20563;-68
2023/03/08 01:50:10;;;;;;;10.32;2.97;;;19.50;48.20;;;;;;5071675;28;20087;-70
2023/03/08 01:52:45;;;;;;;17.98;5.13;;;19.30;48.30;;;;;;5074289;28;20516;-67
2023/03/08 01:55:13;;;;;;;7.38;3.50;;;19.30;48.60;;;;;;5074642;28;20075;-67
2023/03/08 01:57:45;;;;;;;16.48;7.68;;;19.30;49.70;;;;;;5076176;28;20068;-68
2023/03/08 02:00:13;;;;;;;27.58;9.85;;;19.10;49.30;;;;;;5074745;28;20067;-67
2023/03/08 02:02:42;;;;;;;24.58;4.22;;;19.00;49.90;;;;;;5073612;28;20076;-68
2023/03/08 02:05:10;;;;;;;22.50;5.05;;;19.00;49.90;;;;;;5074953;28;20100;-69
2023/03/08 02:07:36;;;;;;;13.35;3.58;;;18.90;49.70;;;;;;5074194;28;20091;-69
2023/03/08 02:10:03;;;;;;;12.88;3.70;;;18.80;50.10;;;;;;5057951;28;20072;-68
2023/03/08 02:12:30;;;;;;;14.02;3.30;;;18.80;50.60;;;;;;5075887;28;20432;-69
2023/03/08 02:14:57;;;;;;;20.15;3.30;;;18.60;50.30;;;;;;5075153;28;20064;-67
2023/03/08 02:17:24;;;;;;;19.70;3.75;;;18.60;50.30;;;;;;5074796;28;20163;-66
2023/03/08 02:20:12;;;;;;;19.83;3.20;;;18.50;50.50;;;;;;5074961;28;20090;-68
2023/03/08 02:22:42;;;;;;;18.63;3.75;;;18.40;50.70;;;;;;5073900;28;21394;-70
2023/03/08 02:25:20;;;;;;;21.73;3.97;;;18.40;50.90;;;;;;5074810;28;20101;-69
2023/03/08 02:27:48;;;;;;;19.95;3.47;;;18.30;51.60;;;;;;5055787;28;20095;-69
2023/03/08 02:30:21;;;;;;;23.23;3.58;;;18.20;51.00;;;;;;5072660;28;20080;-65
2023/03/08 02:32:47;;;;;;;23.92;3.88;;;18.20;51.90;;;;;;5071528;28;20095;-66
2023/03/08 02:35:14;;;;;;;27.58;3.70;;;18.60;52.10;;;;;;5072227;28;20069;-68
2023/03/08 02:37:40;;;;;;;31.80;9.30;;;18.80;51.50;;;;;;5073666;28;20095;-65
2023/03/08 02:40:08;;;;;;;39.08;13.35;;;18.90;51.10;;;;;;5074075;28;20109;-67
2023/03/08 02:42:35;;;;;;;38.60;13.75;;;18.90;50.50;;;;;;5056114;28;20077;-65
2023/03/08 02:45:01;;;;;;;40.00;12.23;;;18.90;50.50;;;;;;5074120;28;20074;-67
2023/03/08 02:47:27;;;;;;;29.58;10.20;;;18.90;51.10;;;;;;5074517;28;20084;-66
2023/03/08 02:49:54;;;;;;;37.50;9.82;;;19.00;51.40;;;;;;5055545;28;20069;-67
2023/03/08 02:52:20;;;;;;;31.98;8.80;;;19.00;51.40;;;;;;5071914;28;20133;-67
2023/03/08 02:54:47;;;;;;;45.97;8.77;;;18.90;51.90;;;;;;5074912;28;20080;-68
2023/03/08 02:57:13;;;;;;;37.80;7.80;;;18.90;51.90;;;;;;5071069;28;20101;-65
2023/03/08 02:59:39;;;;;;;28.40;6.97;;;18.90;52.30;;;;;;5071648;28;20068;-66
2023/03/08 03:02:06;;;;;;;36.88;8.20;;;18.80;51.70;;;;;;5071888;28;20094;-66
2023/03/08 03:04:34;;;;;;;45.53;8.70;;;18.80;52.30;;;;;;5072417;28;20355;-65
2023/03/08 03:07:00;;;;;;;28.80;7.57;;;18.70;51.90;;;;;;5070655;28;20102;-65
2023/03/08 03:09:28;;;;;;;42.47;7.95;;;18.60;52.20;;;;;;5071730;28;20091;-65
2023/03/08 03:11:54;;;;;;;30.85;6.13;;;18.60;52.50;;;;;;5070112;28;20074;-66
2023/03/08 03:14:21;;;;;;;33.53;7.35;;;18.60;52.20;;;;;;5076241;28;20064;-64
2023/03/08 03:16:47;;;;;;;37.35;7.45;;;18.60;52.70;;;;;;5072754;28;20072;-64
2023/03/08 03:19:14;;;;;;;30.23;6.65;;;18.50;53.00;;;;;;5073795;28;20092;-67
2023/03/08 03:21:40;;;;;;;36.60;10.45;;;18.40;53.30;;;;;;5071753;28;20094;-66
2023/03/08 03:24:07;;;;;;;52.38;11.40;;;18.30;53.40;;;;;;5074059;28;20580;-66
2023/03/08 03:26:33;;;;;;;55.92;13.68;;;18.30;53.90;;;;;;5070831;28;20101;-65
2023/03/08 03:29:00;;;;;;;56.70;11.00;;;18.30;53.30;;;;;;5073794;28;20123;-66
2023/03/08 03:31:27;;;;;;;57.15;12.00;;;18.20;53.10;;;;;;5074346;28;20084;-68
2023/03/08 03:33:54;;;;;;;46.00;11.13;;;18.20;54.50;;;;;;5074205;28;20592;-66
2023/03/08 03:36:21;;;;;;;60.08;10.45;;;18.10;54.90;;;;;;5072915;28;20144;-65
2023/03/08 03:38:48;;;;;;;44.90;10.18;;;18.00;55.10;;;;;;5073023;28;20459;-67
2023/03/08 03:41:17;;;;;;;60.65;10.82;;;17.80;55.20;;;;;;5071679;28;20080;-65
2023/03/08 03:43:43;;;;;;;55.13;10.25;;;17.70;55.30;;;;;;5071074;28;20552;-65
2023/03/08 03:46:16;;;;;;;48.53;10.95;;;17.70;55.80;;;;;;5071883;28;20098;-66
2023/03/08 03:48:43;;;;;;;46.53;10.32;;;17.60;56.20;;;;;;5074890;28;20092;-67
2023/03/08 03:51:12;;;;;;;48.50;11.00;;;17.50;56.20;;;;;;5073663;28;20111;-65
2023/03/08 03:53:38;;;;;;;44.50;10.52;;;17.40;56.20;;;;;;5071188;28;20071;-66
2023/03/08 03:56:17;;;;;;;54.30;10.35;;;17.40;56.10;;;;;;5073000;28;20100;-65
2023/03/08 03:58:44;;;;;;;67.78;12.50;;;17.40;56.10;;;;;;5073708;28;20155;-64
2023/03/08 04:01:23;;;;;;;66.82;11.98;;;17.40;56.80;;;;;;5071919;28;20087;-65
2023/03/08 04:03:50;;;;;;;67.68;11.38;;;17.40;57.10;;;;;;5071247;28;20465;-65
2023/03/08 04:06:19;;;;;;;85.45;11.75;;;17.30;57.00;;;;;;5071410;28;20162;-66
2023/03/08 04:08:46;;;;;;;65.65;11.40;;;17.30;57.20;;;;;;5070460;28;20116;-66
2023/03/08 04:11:15;;;;;;;69.13;10.43;;;17.20;57.60;;;;;;5073034;28;20084;-66
2023/03/08 04:13:42;;;;;;;76.65;11.20;;;17.10;57.40;;;;;;5071313;28;20077;-67
2023/03/08 04:16:14;;;;;;;70.20;12.88;;;17.00;57.30;;;;;;5073819;28;20192;-68
2023/03/08 04:18:41;;;;;;;69.63;13.70;;;16.90;57.70;;;;;;5072568;28;20087;-66
2023/03/08 04:21:07;;;;;;;65.85;11.88;;;16.90;59.00;;;;;;5072355;28;20096;-64
2023/03/08 04:23:34;;;;;;;61.60;12.93;;;16.80;59.80;;;;;;5070683;28;20089;-65
2023/03/08 04:26:02;;;;;;;75.57;15.55;;;16.80;59.50;;;;;;5071964;28;20610;-66
2023/03/08 04:28:29;;;;;;;73.03;16.00;;;16.80;59.50;;;;;;5073081;28;20100;-65
2023/03/08 04:30:56;;;;;;;104.32;20.67;;;16.70;59.80;;;;;;5072329;28;20099;-66
2023/03/08 04:33:23;;;;;;;115.43;23.35;;;16.70;59.70;;;;;;5069580;28;20073;-65
2023/03/08 04:35:50;;;;;;;110.43;23.67;;;16.50;58.80;;;;;;5069433;28;20139;-65
2023/03/08 04:38:17;;;;;;;108.00;23.35;;;16.50;58.80;;;;;;5069650;28;20454;-66
2023/03/08 04:41:10;;;;;;;94.75;21.98;;;16.50;59.30;;;;;;5070907;28;20093;-67
2023/03/08 04:43:45;;;;;;;90.30;22.33;;;16.50;59.30;;;;;;5071359;28;20585;-66
2023/03/08 04:46:13;;;;;;;89.05;20.20;;;16.50;58.90;;;;;;5070977;28;20080;-64
2023/03/08 04:48:40;;;;;;;82.55;20.13;;;16.40;59.10;;;;;;5070879;28;21785;-67
2023/03/08 04:51:07;;;;;;;85.18;21.27;;;16.40;59.40;;;;;;5068290;28;20067;-68
2023/03/08 04:53:35;;;;;;;88.78;21.50;;;16.30;59.40;;;;;;5068518;28;20513;-66
2023/03/08 04:56:02;;;;;;;95.47;21.90;;;16.30;59.40;;;;;;5072358;28;20165;-66
2023/03/08 04:58:29;;;;;;;101.68;23.13;;;16.20;59.90;;;;;;5068483;28;20077;-66
2023/03/08 05:00:56;;;;;;;95.30;22.27;;;16.10;60.00;;;;;;5072458;28;20073;-65
2023/03/08 05:03:22;;;;;;;84.47;22.90;;;16.10;60.30;;;;;;5071716;28;20075;-64
2023/03/08 05:05:52;;;;;;;100.22;22.42;;;16.00;60.30;;;;;;5068276;28;20116;-66
2023/03/08 05:08:18;;;;;;;104.75;22.00;;;15.90;60.10;;;;;;5070399;28;20100;-66
2023/03/08 05:10:59;;;;;;;117.78;28.10;;;15.80;60.70;;;;;;5071679;28;20065;-65
2023/03/08 05:13:28;;;;;;;95.00;23.95;;;15.80;61.50;;;;;;5071552;28;20153;-65
2023/03/08 05:15:54;;;;;;;100.18;25.42;;;15.80;61.80;;;;;;5071018;28;20069;-66
2023/03/08 05:18:21;;;;;;;88.78;21.92;;;15.70;62.50;;;;;;5072488;28;20100;-66
2023/03/08 05:20:58;;;;;;;93.45;22.25;;;15.60;61.90;;;;;;5070363;28;20068;-66
2023/03/08 05:23:26;;;;;;;117.88;21.58;;;15.50;61.70;;;;;;5068065;28;20165;-66
2023/03/08 05:25:55;;;;;;;96.63;20.67;;;15.50;61.40;;;;;;5069549;28;20073;-67
2023/03/08 05:28:22;;;;;;;103.03;21.35;;;15.50;61.80;;;;;;5070166;28;20088;-67
2023/03/08 05:30:49;;;;;;;101.90;21.08;;;15.50;61.90;;;;;;5072112;28;20081;-66
2023/03/08 05:33:17;;;;;;;86.30;21.63;;;15.50;62.60;;;;;;5051325;28;20080;-66
2023/03/08 05:35:43;;;;;;;99.10;23.17;;;15.50;62.70;;;;;;5068781;28;20617;-65
2023/03/08 05:38:10;;;;;;;122.88;43.63;;;15.30;63.20;;;;;;5070945;28;20115;-66
2023/03/08 05:40:37;;;;;;;195.80;69.28;;;15.30;62.90;;;;;;5073040;28;20410;-65
2023/03/08 05:43:04;;;;;;;147.10;56.22;;;15.30;62.80;;;;;;5071764;28;20080;-66
2023/03/08 05:45:30;;;;;;;122.35;40.35;;;15.30;63.10;;;;;;5071459;28;20077;-65
2023/03/08 05:47:56;;;;;;;110.97;29.90;;;15.30;63.70;;;;;;5069967;28;20600;-64
2023/03/08 05:50:23;;;;;;;100.40;27.80;;;15.20;62.80;;;;;;5052377;28;20156;-67
2023/03/08 05:52:49;;;;;;;106.35;26.67;;;15.20;64.10;;;;;;5068565;28;20070;-68
2023/03/08 05:55:16;;;;;;;115.40;27.05;;;15.10;64.30;;;;;;5071753;28;20077;-65
2023/03/08 05:57:42;;;;;;;114.07;25.48;;;15.10;64.20;;;;;;5072003;28;20115;-66
2023/03/08 06:00:08;;;;;;;;;;;15.10;64.00;;;;;;5073717;28;20483;-67
2023/03/08 06:02:35;;;;;;;99.88;25.98;;;15.00;63.20;;;;;;5075038;28;19968;-66
2023/03/08 06:05:01;;;;;;;;;;;14.90;63.80;;;;;;5074953;28;20464;-64
2023/03/08 06:07:27;;;;;;;122.13;38.95;;;14.90;63.50;;;;;;5075236;28;20071;-65
2023/03/08 06:09:54;;;;;;;;;;;15.00;62.70;;;;;;5074749;28;20076;-65
2023/03/08 06:12:21;;;;;;;101.65;29.85;;;15.00;62.50;;;;;;5073377;28;19963;-66
2023/03/08 06:14:47;;;;;;;93.10;26.27;;;15.00;63.20;;;;;;5072236;28;20076;-67
2023/03/08 06:17:13;;;;;;;;;;;15.10;62.90;;;;;;5073034;28;20074;-66
2023/03/08 06:19:40;;;;;;;83.68;21.05;;;15.00;62.50;;;;;;5073107;28;19987;-64
2023/03/08 06:22:07;;;;;;;74.45;20.48;;;15.10;62.70;;;;;;5072677;28;20160;-67
2023/03/08 06:24:33;;;;;;;84.03;19.20;;;15.00;63.10;;;;;;5073605;28;20274;-67
2023/03/08 06:27:00;;;;;;;86.40;18.30;;;15.00;63.60;;;;;;5073875;28;20100;-66
2023/03/08 06:29:26;;;;;;;;;;;15.00;63.90;;;;;;5074386;28;20507;-67
2023/03/08 06:31:52;;;;;;;72.00;18.83;;;14.90;63.90;;;;;;5071699;28;19963;-65
2023/03/08 06:34:18;;;;;;;;;;;14.80;63.70;;;;;;5074796;28;20148;-65
2023/03/08 06:36:45;;;;;;;64.60;17.47;;;14.80;64.20;;;;;;5073383;28;20429;-65
2023/03/08 06:39:11;;;;;;;;;;;14.70;64.00;;;;;;5072970;28;20109;-66
2023/03/08 06:41:37;;;;;;;86.10;18.33;;;14.60;64.50;;;;;;5072645;28;20767;-67
2023/03/08 06:44:04;;;;;;;76.75;18.75;;;14.60;64.20;;;;;;5071244;28;20079;-68
2023/03/08 06:46:30;;;;;;;84.35;18.60;;;14.60;64.10;;;;;;5074058;28;20203;-67
2023/03/08 06:48:56;;;;;;;;;;;14.60;64.20;;;;;;5077344;28;20088;-67
2023/03/08 06:51:22;;;;;;;80.80;17.63;;;14.60;65.30;;;;;;5076303;28;20094;-66
2023/03/08 06:53:49;;;;;;;;;;;14.60;66.50;;;;;;5071203;28;20085;-66
2023/03/08 06:56:17;;;;;;;63.92;14.15;;;14.40;66.60;;;;;;5072969;28;20130;-63
2023/03/08 06:58:43;;;;;;;58.72;13.43;;;14.40;66.90;;;;;;5074475;28;20103;-65
2023/03/08 07:01:11;;;;;;;44.65;9.05;;;14.30;66.40;;;;;;5055177;28;20144;-65
2023/03/08 07:03:38;;;;;;;58.40;18.27;;;14.30;67.10;;;;;;5073020;28;20415;-66
2023/03/08 07:06:07;;;;;;;27.95;7.40;;;14.30;67.70;;;;;;5072700;28;20123;-62
2023/03/08 07:08:34;;;;;;;23.88;7.40;;;14.30;68.10;;;;;;5072098;28;20583;-64
2023/03/08 07:11:01;;;;;;;26.70;7.45;;;14.20;68.80;;;;;;5071650;28;20069;-65
2023/03/08 07:13:28;;;;;;;26.92;7.25;;;14.20;68.60;;;;;;5073323;28;20546;-63
2023/03/08 07:15:55;;;;;;;30.98;6.63;;;14.20;69.30;;;;;;5073041;28;20084;-66
2023/03/08 07:18:21;;;;;;;35.40;6.65;;;14.20;70.00;;;;;;5072533;28;20075;-64
2023/03/08 07:20:51;;;;;;;;;;;14.20;69.40;;;;;;5076591;28;20076;-63
2023/03/08 07:23:18;;;;;;;24.50;5.22;;;14.20;69.80;;;;;;5074388;28;20041;-65
2023/03/08 07:25:44;;;;;;;;;;;14.20;70.10;;;;;;5073772;28;20081;-66
2023/03/08 07:28:10;;;;;;;35.58;9.05;;;14.20;70.10;;;;;;5072991;28;20443;-65
2023/03/08 07:30:36;;;;;;;;;;;14.20;70.50;;;;;;5075176;28;20071;-65
2023/03/08 07:33:03;;;;;;;23.75;9.98;;;14.20;70.40;;;;;;5073159;28;19957;-65
2023/03/08 07:35:29;;;;;;;24.80;11.20;;;14.10;70.40;;;;;;5074189;28;20069;-63
2023/03/08 07:37:56;;;;;;;36.75;12.38;;;14.00;70.70;;;;;;5072411;28;20073;-64
2023/03/08 07:40:22;;;;;;;22.63;8.85;;;14.00;71.00;;;;;;5073871;28;20073;-65
2023/03/08 07:42:49;;;;;;;21.73;8.02;;;14.00;71.40;;;;;;5074798;28;20085;-65
2023/03/08 07:45:15;;;;;;;;;;;14.00;71.30;;;;;;5073167;28;20500;-66
2023/03/08 07:47:41;;;;;;;21.63;6.28;;;14.00;71.60;;;;;;5072418;28;20119;-67
2023/03/08 07:50:08;;;;;;;20.45;5.75;;;14.00;71.70;;;;;;5073228;28;20123;-65
2023/03/08 07:52:35;;;;;;;17.90;5.80;;;14.00;71.80;;;;;;5074082;28;20088;-66
2023/03/08 07:55:01;;;;;;;;;;;14.00;72.10;;;;;;5072270;28;20070;-64
2023/03/08 07:57:28;;;;;;;25.20;8.17;;;13.90;72.30;;;;;;5070971;28;19963;-64
2023/03/08 07:59:54;;;;;;;;;;;13.90;72.40;;;;;;5072923;28;20335;-66
2023/03/08 08:02:20;;;;;;;20.02;6.97;;;13.80;72.30;;;;;;5072333;28;19956;-64
2023/03/08 08:04:47;;;;;;;16.98;6.18;;;13.70;72.70;;;;;;5069906;28;20065;-66
2023/03/08 08:07:15;;;;;;;14.82;5.70;;;13.80;72.80;;;;;;5070778;28;20107;-65
2023/03/08 08:09:42;;;;;;;18.90;5.28;;;13.80;72.90;;;;;;5070688;28;20073;-66
2023/03/08 08:12:09;;;;;;;15.15;6.35;;;13.80;73.00;;;;;;5071593;28;20095;-65
2023/03/08 08:14:35;;;;;;;21.35;5.82;;;13.70;72.80;;;;;;5071403;28;20097;-65
2023/03/08 08:17:02;;;;;;;;;;;13.70;72.80;;;;;;5071788;28;20084;-65
2023/03/08 08:19:30;;;;;;;17.10;5.30;;;13.70;73.00;;;;;;5072809;28;20009;-66
2023/03/08 08:21:57;;;;;;;16.42;5.95;;;13.60;73.20;;;;;;5072339;28;21082;-64
2023/03/08 08:24:26;;;;;;;23.35;5.43;;;13.50;73.40;;;;;;5072982;28;20083;-64
2023/03/08 08:26:53;;;;;;;17.23;8.13;;;13.60;74.10;;;;;;5073921;28;20137;-66
2023/03/08 08:29:20;;;;;;;20.73;17.55;;;13.50;73.60;;;;;;5074171;28;20085;-64
2023/03/08 08:31:47;;;;;;;11.45;5.28;;;13.50;73.60;;;;;;5053142;28;20084;-65
2023/03/08 08:34:13;;;;;;;17.23;5.97;;;13.50;74.30;;;;;;5071818;28;20526;-63
2023/03/08 08:36:39;;;;;;;;;;;13.40;74.50;;;;;;5071556;28;20084;-65
2023/03/08 08:39:06;;;;;;;21.75;5.65;;;13.40;74.20;;;;;;5070216;28;20337;-65
2023/03/08 08:41:32;;;;;;;;;;;13.30;74.50;;;;;;5071120;28;20084;-64
2023/03/08 08:43:59;;;;;;;15.50;5.50;;;13.20;74.80;;;;;;5070283;28;19983;-65
2023/03/08 08:46:26;;;;;;;13.77;5.65;;;13.20;75.10;;;;;;5069699;28;20121;-64
2023/03/08 08:48:57;;;;;;;17.02;6.03;;;13.20;75.70;;;;;;5070537;28;20186;-64
2023/03/08 08:51:23;;;;;;;18.10;5.95;;;13.20;75.60;;;;;;5072231;28;20076;-65
2023/03/08 08:53:50;;;;;;;;;;;13.10;76.70;;;;;;5073309;28;20117;-63
2023/03/08 08:56:19;;;;;;;13.13;6.53;;;13.10;75.60;;;;;;5073810;28;19967;-65
2023/03/08 08:58:47;;;;;;;17.27;6.50;;;13.10;75.60;;;;;;5072988;28;20077;-66
2023/03/08 09:01:34;;;;;;;13.93;5.28;;;13.00;75.20;;;;;;5072329;28;20457;-65
2023/03/08 09:04:00;;;;;;;;;;;13.00;75.30;;;;;;5073308;28;20102;-64
2023/03/08 09:06:28;;;;;;;16.02;5.82;;;13.00;75.00;;;;;;5072058;28;19984;-64
2023/03/08 09:08:57;;;;;;;11.35;5.38;;;13.00;75.10;;;;;;5070469;28;20097;-66
2023/03/08 09:11:25;;;;;;;13.20;5.78;;;13.00;75.00;;;;;;5070222;28;20581;-65
2023/03/08 09:13:52;;;;;;;8.35;5.38;;;12.90;75.50;;;;;;5068981;28;20158;-63
2023/03/08 09:16:27;;;;;;;16.25;6.22;;;13.00;75.50;;;;;;5052143;28;20076;-64
2023/03/08 09:18:55;;;;;;;11.82;5.78;;;12.90;75.50;;;;;;5071612;28;20092;-66
2023/03/08 09:21:22;;;;;;;15.32;6.10;;;12.80;75.50;;;;;;5072082;28;20438;-64
2023/03/08 09:23:49;;;;;;;14.90;6.05;;;12.90;75.60;;;;;;5072100;28;20437;-64
2023/03/08 09:26:16;;;;;;;10.05;5.13;;;12.90;75.50;;;;;;5067103;28;20224;-63
2023/03/08 09:28:43;;;;;;;9.85;5.35;;;12.80;74.90;;;;;;5066883;28;20100;-65
2023/03/08 09:31:13;;;;;;;10.15;5.18;;;12.80;75.60;;;;;;5069306;28;20140;-64
2023/03/08 09:33:41;;;;;;;14.63;5.55;;;12.80;76.20;;;;;;5070968;28;20139;-66
2023/03/08 09:36:08;;;;;;;13.18;5.53;;;12.70;75.30;;;;;;5074820;28;20080;-64
2023/03/08 09:38:35;;;;;;;15.63;5.40;;;12.70;75.40;;;;;;5073707;28;20164;-63
2023/03/08 09:41:14;;;;;;;15.15;5.57;;;12.60;75.60;;;;;;5074353;28;20097;-66
2023/03/08 09:43:56;;;;;;;10.27;5.05;;;12.60;76.60;;;;;;5073802;28;20152;-65
2023/03/08 09:46:29;;;;;;;9.82;4.95;;;12.50;78.00;;;;;;5073560;28;20097;-65
2023/03/08 09:48:59;;;;;;;12.20;5.03;;;12.50;77.90;;;;;;5073862;28;20161;-65
2023/03/08 09:51:34;;;;;;;15.35;5.75;;;12.40;77.40;;;;;;5074525;28;20085;-66
2023/03/08 09:54:06;;;;;;;12.52;5.25;;;12.40;77.30;;;;;;5073630;28;20076;-65
2023/03/08 09:56:47;;;;;;;11.15;5.65;;;12.40;77.50;;;;;;5073381;28;20534;-65
2023/03/08 09:59:45;;;;;;;10.93;5.25;;;12.40;77.40;;;;;;5074398;28;20084;-65
2023/03/08 10:02:40;;;;;;;14.23;5.03;;;12.30;76.90;;;;;;5028868;28;20100;-65
2023/03/08 10:05:21;;;;;;;11.02;4.97;;;12.20;77.60;;;;;;5029730;28;20208;-63
2023/03/08 10:07:50;;;;;;;11.45;5.72;;;12.20;77.70;;;;;;5029353;28;20100;-63
2023/03/08 10:10:31;;;;;;;10.38;5.38;;;12.20;77.90;;;;;;5029273;28;20078;-65
2023/03/08 10:13:28;;;;;;;12.52;5.30;;;12.20;78.60;;;;;;5029527;28;20114;-66
2023/03/08 10:16:16;;;;;;;15.38;5.82;;;12.20;78.80;;;;;;5029224;28;20070;-64
2023/03/08 10:18:45;;;;;;;;;;;12.00;79.00;;;;;;5029814;28;20086;-64
2023/03/08 10:21:16;;;;;;;12.75;5.82;;;12.00;79.00;;;;;;5030263;28;19992;-64
2023/03/08 10:23:46;;;;;;;11.68;5.55;;;12.00;79.30;;;;;;5029643;28;20074;-64
2023/03/08 10:26:14;;;;;;;14.57;5.68;;;11.90;79.40;;;;;;5029249;28;20670;-65
2023/03/08 10:28:40;;;;;;;20.05;6.18;;;11.90;79.30;;;;;;5029080;28;20157;-66
2023/03/08 10:31:20;;;;;;;23.27;6.70;;;11.80;79.20;;;;;;5029226;28;20094;-64
2023/03/08 10:33:50;;;;;;;17.05;6.97;;;11.80;79.20;;;;;;5029400;28;20070;-66
2023/03/08 10:36:23;;;;;;;14.73;6.05;;;11.80;79.10;;;;;;5029554;28;20086;-65
2023/03/08 10:39:07;;;;;;;18.85;6.30;;;11.70;79.30;;;;;;5070053;28;20111;-65
2023/03/08 10:42:00;;;;;;;23.58;6.60;;;11.80;79.60;;;;;;5074498;28;20127;-63
2023/03/08 10:44:56;;;;;;;17.65;6.63;;;11.80;79.80;;;;;;5073763;28;20619;-64
2023/03/08 10:47:29;;;;;;;17.48;6.30;;;11.80;80.10;;;;;;5070306;28;20089;-66
2023/03/08 10:50:05;;;;;;;17.05;6.93;;;11.70;79.60;;;;;;5072887;28;20104;-64
2023/03/08 10:52:32;;;;;;;13.48;6.13;;;11.60;79.90;;;;;;5076132;28;20092;-64
2023/03/08 10:55:19;;;;;;;12.80;6.15;;;11.50;79.90;;;;;;5075811;28;20191;-62
2023/03/08 10:57:53;;;;;;;18.23;6.22;;;11.50;80.70;;;;;;5075250;28;20084;-63
2023/03/08 11:00:20;;;;;;;13.07;6.25;;;11.50;81.30;;;;;;5074188;28;20080;-63
2023/03/08 11:02:48;;;;;;;15.88;6.35;;;11.50;80.80;;;;;;5074991;28;20128;-63
2023/03/08 11:05:25;;;;;;;20.83;6.70;;;11.40;80.40;;;;;;5072225;28;20581;-64
2023/03/08 11:07:57;;;;;;;14.50;5.97;;;11.50;80.50;;;;;;5072801;28;20097;-64
2023/03/08 11:10:25;;;;;;;19.27;7.38;;;11.40;80.80;;;;;;5074105;28;20130;-64
2023/03/08 11:13:16;;;;;;;17.40;7.53;;;11.40;80.70;;;;;;5073873;28;20069;-64
2023/03/08 11:15:51;;;;;;;20.02;9.60;;;11.40;80.60;;;;;;5073907;28;20080;-64
2023/03/08 11:18:42;;;;;;;29.20;10.10;;;11.40;80.50;;;;;;5071574;28;20076;-64
2023/03/08 11:21:29;;;;;;;25.15;11.13;;;11.30;80.50;;;;;;5074142;28;20080;-64
2023/03/08 11:24:30;;;;;;;18.70;9.48;;;11.20;80.30;;;;;;5075153;28;20115;-64
2023/03/08 11:27:43;;;;;;;20.17;8.02;;;11.30;80.40;;;;;;4989777;28;20093;-63
2023/03/08 11:30:17;;;;;;;18.83;7.97;;;11.20;80.30;;;;;;4992648;28;20078;-64
2023/03/08 11:32:43;;;;;;;21.52;7.28;;;11.10;80.40;;;;;;4992907;28;20078;-65
2023/03/08 11:35:12;;;;;;;;;;;11.00;80.40;;;;;;4996733;28;20079;-63
2023/03/08 11:38:01;;;;;;;15.68;5.85;;;11.00;80.70;;;;;;4994979;28;19958;-64
2023/03/08 11:40:50;;;;;;;13.70;5.82;;;11.00;80.70;;;;;;4996313;28;20116;-66
2023/03/08 11:43:34;;;;;;;23.55;6.32;;;11.00;79.90;;;;;;4981841;28;20143;-65
2023/03/08 11:46:15;;;;;;;15.35;5.63;;;11.00;79.40;;;;;;4990801;28;20181;-63
2023/03/08 11:49:10;;;;;;;19.88;5.75;;;11.00;79.40;;;;;;4992589;28;20103;-65
2023/03/08 11:52:03;;;;;;;17.35;5.90;;;10.90;79.50;;;;;;4989300;28;20071;-65
2023/03/08 11:54:50;;;;;;;12.65;5.43;;;10.90;79.60;;;;;;4993239;28;20449;-62
2023/03/08 11:57:17;;;;;;;9.57;5.28;;;10.90;79.50;;;;;;4993898;28;20079;-64
2023/03/08 12:00:11;;;;;;;10.68;5.05;;;10.90;79.30;;;;;;4998861;28;20099;-63
2023/03/08 12:02:44;;;;;;;13.13;4.93;;;10.90;79.20;;;;;;5071794;28;20103;-67
2023/03/08 12:05:26;;;;;;;13.90;4.57;;;10.90;78.90;;;;;;5070073;28;20104;-65
2023/03/08 12:08:05;;;;;;;18.63;4.50;;;10.90;78.40;;;;;;5071998;28;20092;-63
2023/03/08 12:10:41;;;;;;;11.10;3.90;;;10.90;78.40;;;;;;5073756;28;20069;-62
2023/03/08 12:13:33;;;;;;;12.98;4.38;;;10.90;78.20;;;;;;5073179;28;20081;-65
2023/03/08 12:16:12;;;;;;;7.90;3.80;;;10.80;78.00;;;;;;5071265;28;20472;-64
2023/03/08 12:18:45;;;;;;;9.07;3.45;;;10.80;77.50;;;;;;5072427;28;20437;-65
2023/03/08 12:21:27;;;;;;;10.07;3.50;;;10.70;77.70;;;;;;5074346;28;20158;-63
2023/03/08 12:24:27;;;;;;;10.00;3.20;;;10.70;77.70;;;;;;5071284;28;20580;-65
2023/03/08 12:27:16;;;;;;;9.73;3.28;;;10.70;77.40;;;;;;5072624;28;20077;-64
2023/03/08 12:30:01;;;;;;;7.38;3.28;;;10.70;77.20;;;;;;5072257;28;20092;-63
2023/03/08 12:32:28;;;;;;;10.55;3.38;;;10.60;77.10;;;;;;5071022;28;20072;-64
2023/03/08 12:35:07;;;;;;;11.63;3.42;;;10.60;77.20;;;;;;5070692;28;20093;-63
2023/03/08 12:37:33;;;;;;;14.63;3.97;;;10.60;77.40;;;;;;5072085;28;20186;-64
2023/03/08 12:40:24;;;;;;;10.80;4.05;;;10.50;77.60;;;;;;5074104;28;20122;-62
2023/03/08 12:42:51;;;;;;;12.93;4.40;;;10.50;77.80;;;;;;5073696;28;20105;-63
2023/03/08 12:45:22;;;;;;;8.30;3.53;;;10.50;78.00;;;;;;5074220;28;20430;-64
2023/03/08 12:48:03;;;;;;;11.57;4.10;;;10.50;78.30;;;;;;5074024;28;20163;-67
2023/03/08 12:50:34;;;;;;;17.70;5.38;;;10.40;78.20;;;;;;5072749;28;20082;-63
2023/03/08 12:53:01;;;;;;;15.27;4.63;;;10.40;78.40;;;;;;5073310;28;20112;-64
2023/03/08 12:55:32;;;;;;;13.75;3.50;;;10.40;78.70;;;;;;5071571;28;20072;-64
2023/03/08 12:58:03;;;;;;;9.35;4.05;;;10.50;78.70;;;;;;5069187;28;20609;-66